Time;durP1;ratioP1;P1;durP2;ratioP2;P2;SDS_P1;SDS_P2;PMS_P1;PMS_P2;Temp;Humidity;BMP_temperature;BMP_pressure;BME280_temperature;BME280_humidity;BME280_pressure;Samples;Min_cycle;Max_cycle;Signal;HPM_P1;HPM_P2
2023/01/23 00:01:12;;;;;;;13.02;8.32;;;;;;;1.50;100.00;103638.38;6189174;23;20481;-78
2023/01/23 00:03:39;;;;;;;15.30;8.50;;;;;;;1.49;100.00;103637.59;6162791;23;20093;-78
2023/01/23 00:06:11;;;;;;;10.85;7.32;;;;;;;1.48;100.00;103646.56;6188629;23;20471;-78
2023/01/23 00:08:38;;;;;;;14.52;8.43;;;;;;;1.48;100.00;103645.78;6189241;23;20014;-78
2023/01/23 00:11:07;;;;;;;18.42;8.07;;;;;;;1.49;100.00;103644.69;6189158;23;20017;-78
2023/01/23 00:13:34;;;;;;;20.42;8.30;;;;;;;1.50;100.00;103644.41;6189262;23;20399;-78
2023/01/23 00:16:09;;;;;;;14.25;7.60;;;;;;;1.48;100.00;103649.19;6189087;23;20021;-78
2023/01/23 00:18:37;;;;;;;15.27;8.80;;;;;;;1.48;100.00;103649.19;6189271;23;20010;-78
2023/01/23 00:21:09;;;;;;;16.95;9.02;;;;;;;1.46;100.00;103635.59;6188505;23;20014;-77
2023/01/23 00:23:36;;;;;;;18.45;9.00;;;;;;;1.46;100.00;103642.69;6162856;23;20515;-78
2023/01/23 00:26:07;;;;;;;13.20;8.27;;;;;;;1.47;100.00;103645.00;6189175;23;20014;-78
2023/01/23 00:28:33;;;;;;;14.85;8.27;;;;;;;1.46;100.00;103640.84;6189149;23;20499;-78
2023/01/23 00:31:11;;;;;;;15.50;8.65;;;;;;;1.47;100.00;103642.38;6188731;23;20444;-78
2023/01/23 00:33:39;;;;;;;18.48;8.05;;;;;;;1.48;100.00;103651.81;6189218;23;20033;-78
2023/01/23 00:36:06;;;;;;;10.48;7.57;;;;;;;1.46;100.00;103643.44;6188470;23;20017;-78
2023/01/23 00:38:33;;;;;;;15.95;8.68;;;;;;;1.46;100.00;103646.09;6162412;23;20088;-78
2023/01/23 00:41:01;;;;;;;16.63;8.70;;;;;;;1.45;100.00;103638.50;6189095;23;20013;-78
2023/01/23 00:43:28;;;;;;;13.07;8.35;;;;;;;1.44;100.00;103644.84;6188988;23;20474;-78
2023/01/23 00:45:55;;;;;;;14.13;7.93;;;;;;;1.43;100.00;103649.31;6188656;23;20017;-78
2023/01/23 00:48:22;;;;;;;12.40;8.25;;;;;;;1.43;100.00;103638.03;6189442;23;20014;-78
2023/01/23 00:50:50;;;;;;;12.18;7.72;;;;;;;1.45;100.00;103639.28;6187390;23;20064;-78
2023/01/23 00:53:16;;;;;;;14.02;7.80;;;;;;;1.49;100.00;103637.59;6189262;23;20053;-78
2023/01/23 00:55:43;;;;;;;14.77;9.07;;;;;;;1.50;100.00;103628.63;6188630;23;20014;-78
2023/01/23 00:58:10;;;;;;;15.13;8.60;;;;;;;1.48;100.00;103640.53;6188952;23;20018;-78
2023/01/23 01:00:37;;;;;;;10.75;7.95;;;;;;;1.50;100.00;103639.13;6162138;23;20341;-78
2023/01/23 01:03:05;;;;;;;17.17;8.70;;;;;;;1.51;100.00;103638.06;6161752;23;20137;-78
2023/01/23 01:05:33;;;;;;;15.50;8.18;;;;;;;1.52;100.00;103636.22;6188388;23;20546;-78
2023/01/23 01:08:01;;;;;;;17.70;8.48;;;;;;;1.50;100.00;103623.38;6162780;23;20014;-78
2023/01/23 01:10:28;;;;;;;13.90;8.40;;;;;;;1.48;100.00;103622.91;6189130;23;20018;-78
2023/01/23 01:12:56;;;;;;;13.82;8.73;;;;;;;1.48;100.00;103622.91;6188520;23;20029;-78
2023/01/23 01:15:23;;;;;;;13.60;7.40;;;;;;;1.51;100.00;103621.53;6189227;23;20018;-78
2023/01/23 01:17:52;;;;;;;13.18;8.23;;;;;;;1.47;100.00;103618.75;6160982;23;20069;-78
2023/01/23 01:20:22;;;;;;;11.90;8.32;;;;;;;1.48;100.00;103622.91;6161980;23;20029;-77
2023/01/23 01:22:49;;;;;;;11.02;7.78;;;;;;;1.48;100.00;103617.66;6188267;23;20022;-78
2023/01/23 01:25:16;;;;;;;15.10;8.18;;;;;;;1.47;100.00;103624.00;6188817;23;20048;-78
2023/01/23 01:27:43;;;;;;;17.92;8.80;;;;;;;1.47;100.00;103623.22;6188678;23;20024;-78
2023/01/23 01:30:10;;;;;;;19.20;9.27;;;;;;;1.49;100.00;103627.09;6188496;23;20021;-77
2023/01/23 01:32:39;;;;;;;16.85;8.45;;;;;;;1.47;100.00;103631.88;6161045;23;20093;-78
2023/01/23 01:35:07;;;;;;;13.63;8.05;;;;;;;1.47;100.00;103634.50;6188321;23;20020;-78
2023/01/23 01:37:35;;;;;;;15.38;8.45;;;;;;;1.48;100.00;103640.53;6160124;23;20462;-78
2023/01/23 01:40:04;;;;;;;12.10;8.63;;;;;;;1.48;100.00;103646.56;6187324;23;20028;-77
2023/01/23 01:42:31;;;;;;;13.88;8.75;;;;;;;1.48;100.00;103640.53;6187985;23;20040;-78
2023/01/23 01:45:01;;;;;;;12.82;7.93;;;;;;;1.49;100.00;103636.81;6187598;23;20020;-78
2023/01/23 01:47:27;;;;;;;14.70;8.55;;;;;;;1.51;100.00;103635.44;6186640;23;20024;-78
2023/01/23 01:49:58;;;;;;;16.75;8.65;;;;;;;1.52;100.00;103636.22;6187364;23;20105;-78
2023/01/23 01:52:26;;;;;;;13.43;7.82;;;;;;;1.52;100.00;103630.97;6161961;23;20052;-77
2023/01/23 01:54:56;;;;;;;15.80;8.68;;;;;;;1.49;100.00;103634.97;6188604;23;20017;-78
2023/01/23 01:57:30;;;;;;;19.00;8.43;;;;;;;1.51;100.00;103637.28;6163784;23;20056;-78
2023/01/23 02:00:11;;;;;;;15.70;8.38;;;;;;;1.52;100.00;103641.47;6162609;23;20110;-78
2023/01/23 02:02:46;;;;;;;15.25;8.63;;;;;;;1.54;100.00;103634.81;6189060;23;20036;-78
2023/01/23 02:05:21;;;;;;;17.48;8.68;;;;;;;1.53;100.00;103643.78;6164119;23;20025;-78
2023/01/23 02:07:53;;;;;;;16.38;8.63;;;;;;;1.53;100.00;103645.63;6189758;23;20073;-77
2023/01/23 02:10:21;;;;;;;17.88;9.25;;;;;;;1.54;100.00;103642.72;6189594;23;20026;-78
2023/01/23 02:12:50;;;;;;;11.60;8.25;;;;;;;1.56;100.00;103639.78;6189773;23;20022;-77
2023/01/23 02:15:19;;;;;;;14.02;8.75;;;;;;;1.53;100.00;103643.00;6138718;23;20467;-78
2023/01/23 02:17:49;;;;;;;15.50;8.52;;;;;;;1.55;100.00;103641.63;6188891;23;20430;-77
2023/01/23 02:20:18;;;;;;;14.57;8.80;;;;;;;1.56;100.00;103648.44;6189844;23;20018;-78
2023/01/23 02:22:56;;;;;;;17.08;9.50;;;;;;;1.56;100.00;103645.78;6162616;23;20093;-78
2023/01/23 02:25:41;;;;;;;16.58;8.80;;;;;;;1.60;100.00;103653.84;6189908;23;20028;-78
2023/01/23 02:28:11;;;;;;;18.17;8.70;;;;;;;1.58;100.00;103654.13;6163053;23;20100;-78
2023/01/23 02:30:41;;;;;;;15.38;9.38;;;;;;;1.57;100.00;103655.22;6161835;23;20443;-77
2023/01/23 02:33:23;;;;;;;14.00;9.48;;;;;;;1.56;100.00;103658.94;6189520;23;20017;-78
2023/01/23 02:35:51;;;;;;;18.40;9.57;;;;;;;1.56;100.00;103655.53;6187453;23;20045;-77
2023/01/23 02:38:23;;;;;;;16.35;9.73;;;;;;;1.54;100.00;103655.84;6188117;23;20017;-78
2023/01/23 02:40:51;;;;;;;24.95;8.80;;;;;;;1.54;100.00;103658.47;6162550;23;20017;-77
2023/01/23 02:43:25;;;;;;;15.75;8.52;;;;;;;1.52;100.00;103659.84;6162950;23;20410;-78
2023/01/23 02:45:57;;;;;;;15.10;8.23;;;;;;;1.52;100.00;103660.63;6162098;23;20104;-77
2023/01/23 02:48:23;;;;;;;14.10;9.23;;;;;;;1.54;100.00;103666.34;6189851;23;20534;-77
2023/01/23 02:50:51;;;;;;;17.98;9.13;;;;;;;1.56;100.00;103666.81;6177276;23;20025;-77
2023/01/23 02:53:17;;;;;;;14.85;9.38;;;;;;;1.57;100.00;103672.81;6189747;23;20028;-77
2023/01/23 02:55:44;;;;;;;11.90;8.00;;;;;;;1.57;100.00;103680.72;6187581;23;20419;-77
2023/01/23 03:00:57;;;;;;;16.38;8.93;;;;;;;1.56;100.00;103674.69;6186925;23;20100;-77
2023/01/23 03:03:23;;;;;;;16.58;8.27;;;;;;;1.57;100.00;103672.81;6187934;23;20427;-78
2023/01/23 03:05:50;;;;;;;17.40;8.75;;;;;;;1.55;100.00;103673.13;6187030;23;20017;-78
2023/01/23 03:08:16;;;;;;;12.82;8.52;;;;;;;1.57;100.00;103675.47;6189537;23;20018;-78
2023/01/23 03:10:43;;;;;;;17.88;8.85;;;;;;;1.56;100.00;103679.94;6189272;23;20024;-78
2023/01/23 03:13:10;;;;;;;23.77;9.93;;;;;;;1.55;100.00;103672.34;6187576;23;20022;-77
2023/01/23 03:15:38;;;;;;;15.43;9.15;;;;;;;1.54;100.00;103676.06;6186990;23;20037;-78
2023/01/23 03:18:04;;;;;;;21.45;8.75;;;;;;;1.56;100.00;103674.69;6187735;23;20022;-77
2023/01/23 03:20:40;;;;;;;12.25;8.27;;;;;;;1.54;100.00;103676.84;6189702;23;20017;-77
2023/01/23 03:23:07;;;;;;;16.27;8.68;;;;;;;1.55;100.00;103681.00;6187670;23;20021;-77
2023/01/23 03:25:34;;;;;;;17.23;8.32;;;;;;;1.56;100.00;103672.06;6189199;23;20017;-78
2023/01/23 03:28:02;;;;;;;15.20;8.88;;;;;;;1.56;100.00;103668.66;6187444;23;20076;-77
2023/01/23 03:30:29;;;;;;;19.58;8.57;;;;;;;1.54;100.00;103673.44;6187336;23;20097;-78
2023/01/23 03:32:55;;;;;;;17.73;9.43;;;;;;;1.50;100.00;103672.50;6189371;23;20017;-78
2023/01/23 03:35:22;;;;;;;13.50;8.35;;;;;;;1.48;100.00;103672.81;6190279;23;20022;-77
2023/01/23 03:37:51;;;;;;;15.45;7.93;;;;;;;1.50;100.00;103673.28;6187367;23;20061;-77
2023/01/23 03:43:12;;;;;;;18.65;9.10;;;;;;;1.52;100.00;103678.22;6186865;23;20025;-78
2023/01/23 03:45:43;;;;;;;12.25;8.82;;;;;;;1.51;100.00;103674.81;6187090;23;20487;-77
2023/01/23 03:48:10;;;;;;;13.52;8.60;;;;;;;1.50;100.00;103672.50;6189014;23;20064;-77
2023/01/23 03:50:37;;;;;;;19.75;8.20;;;;;;;1.51;100.00;103672.19;6186553;23;20030;-77
2023/01/23 03:53:03;;;;;;;15.77;8.93;;;;;;;1.51;100.00;103679.28;6189093;23;20029;-77
2023/01/23 03:55:30;;;;;;;15.93;9.43;;;;;;;1.50;100.00;103675.13;6162851;23;20017;-77
2023/01/23 03:57:56;;;;;;;11.95;8.85;;;;;;;1.51;100.00;103684.56;6188379;23;20037;-77
2023/01/23 04:00:26;;;;;;;14.77;8.90;;;;;;;1.50;100.00;103677.75;6187424;23;20022;-77
2023/01/23 04:03:03;;;;;;;16.70;8.80;;;;;;;1.50;100.00;103686.41;6187489;23;20018;-77
2023/01/23 04:05:30;;;;;;;19.23;9.80;;;;;;;1.50;100.00;103681.16;6187586;23;20028;-77
2023/01/23 04:07:58;;;;;;;17.60;8.77;;;;;;;1.52;100.00;103688.72;6162763;23;20419;-77
2023/01/23 04:10:26;;;;;;;16.17;9.25;;;;;;;1.50;100.00;103680.38;6187276;23;20104;-77
2023/01/23 04:12:58;;;;;;;13.88;8.82;;;;;;;1.52;100.00;103688.72;6186985;23;20041;-77
2023/01/23 04:15:25;;;;;;;21.58;9.98;;;;;;;1.52;100.00;103679.00;6187594;23;20026;-77
2023/01/23 04:17:54;;;;;;;20.80;9.80;;;;;;;1.51;100.00;103687.94;6186343;23;20025;-77
2023/01/23 04:20:23;;;;;;;13.90;8.85;;;;;;;1.52;100.00;103684.25;6187437;23;20013;-77
2023/01/23 04:22:51;;;;;;;19.00;9.65;;;;;;;1.50;100.00;103696.91;6186884;23;20026;-77
2023/01/23 04:25:17;;;;;;;18.50;9.52;;;;;;;1.49;100.00;103687.47;6187653;23;20097;-77
2023/01/23 04:27:45;;;;;;;17.35;9.73;;;;;;;1.48;100.00;103691.19;6186640;23;20021;-77
2023/01/23 04:30:13;;;;;;;16.20;9.95;;;;;;;1.48;100.00;103696.44;6188991;23;20021;-77
2023/01/23 04:32:39;;;;;;;17.73;9.82;;;;;;;1.47;100.00;103694.13;6187092;23;20486;-77
2023/01/23 04:35:07;;;;;;;15.68;9.32;;;;;;;1.49;100.00;103694.59;6187287;23;20113;-76
2023/01/23 04:37:36;;;;;;;14.35;8.82;;;;;;;1.48;100.00;103687.78;6187040;23;20105;-77
2023/01/23 04:40:03;;;;;;;15.85;8.95;;;;;;;1.48;100.00;103696.44;6187197;23;20018;-77
2023/01/23 04:42:39;;;;;;;22.38;9.95;;;;;;;1.47;100.00;103687.00;6187193;23;20021;-77
2023/01/23 04:45:10;;;;;;;17.90;9.35;;;;;;;1.48;100.00;103691.19;6187384;23;20385;-77
2023/01/23 04:47:55;;;;;;;16.52;9.32;;;;;;;1.48;100.00;103695.66;6188493;23;20026;-77
2023/01/23 04:50:22;;;;;;;21.48;9.63;;;;;;;1.48;100.00;103698.28;6187039;23;20426;-77
2023/01/23 04:52:48;;;;;;;13.65;8.63;;;;;;;1.47;100.00;103697.50;6186667;23;20028;-77
2023/01/23 04:55:15;;;;;;;14.57;9.23;;;;;;;1.47;100.00;103699.38;6186909;23;20013;-77
2023/01/23 04:57:42;;;;;;;13.85;9.32;;;;;;;1.46;100.00;103689.94;6186967;23;20405;-77
2023/01/23 05:00:21;;;;;;;15.20;9.18;;;;;;;1.45;100.00;103693.63;6164802;23;20076;-77
2023/01/23 05:02:49;;;;;;;18.60;10.38;;;;;;;1.45;100.00;103691.78;6186543;23;20022;-77
2023/01/23 05:05:19;;;;;;;17.48;9.75;;;;;;;1.44;100.00;103695.50;6187217;23;20447;-77
2023/01/23 05:07:49;;;;;;;20.67;9.90;;;;;;;1.47;100.00;103699.38;6187045;23;20347;-76
2023/01/23 05:10:16;;;;;;;21.95;9.55;;;;;;;1.46;100.00;103701.22;6186595;23;20443;-77
2023/01/23 05:12:44;;;;;;;17.75;9.48;;;;;;;1.48;100.00;103695.66;6186871;23;20026;-77
2023/01/23 05:15:11;;;;;;;15.15;9.73;;;;;;;1.47;100.00;103702.00;6186910;23;20028;-77
2023/01/23 05:17:40;;;;;;;18.58;10.15;;;;;;;1.46;100.00;103708.31;6186672;23;20018;-77
2023/01/23 05:20:08;;;;;;;16.10;9.80;;;;;;;1.45;100.00;103712.03;6186459;23;20021;-77
2023/01/23 05:22:36;;;;;;;15.85;8.85;;;;;;;1.44;100.00;103713.09;6186525;23;20024;-77
2023/01/23 05:25:03;;;;;;;22.27;9.68;;;;;;;1.45;100.00;103715.41;6186377;23;20482;-77
2023/01/23 05:27:30;;;;;;;15.18;10.02;;;;;;;1.44;100.00;103713.88;6187465;23;20022;-77
2023/01/23 05:29:58;;;;;;;14.82;9.73;;;;;;;1.42;100.00;103713.41;6187204;23;20017;-77
2023/01/23 05:32:28;;;;;;;13.65;9.75;;;;;;;1.43;100.00;103716.81;6188043;23;20104;-77
2023/01/23 05:35:02;;;;;;;21.38;9.32;;;;;;;1.42;100.00;103721.28;6188152;23;20105;-79
2023/01/23 05:37:29;;;;;;;15.57;10.32;;;;;;;1.41;100.00;103713.69;6188364;23;20468;-78
2023/01/23 05:40:01;;;;;;;;;;;;;;;1.42;100.00;103718.66;6164067;23;20468;-78
2023/01/23 05:42:48;;;;;;;15.35;9.02;;;;;;;1.42;100.00;103720.50;6189718;23;19924;-78
2023/01/23 05:45:36;;;;;;;15.52;9.32;;;;;;;1.42;100.00;103721.28;6188229;23;20018;-78
2023/01/23 05:48:09;;;;;;;23.85;9.90;;;;;;;1.42;100.00;103721.28;6187864;23;20022;-78
2023/01/23 05:50:35;;;;;;;15.52;10.20;;;;;;;1.41;100.00;103716.31;6187594;23;20073;-78
2023/01/23 05:53:03;;;;;;;14.73;9.77;;;;;;;1.41;100.00;103718.94;6187937;23;20036;-78
2023/01/23 05:55:30;;;;;;;20.25;10.27;;;;;;;1.42;100.00;103716.03;6187805;23;20024;-78
2023/01/23 05:57:56;;;;;;;18.23;10.25;;;;;;;1.42;100.00;103712.63;6188924;23;20017;-78
2023/01/23 06:00:52;;;;;;;15.40;9.32;;;;;;;1.41;100.00;103714.47;6183238;23;20053;-78
2023/01/23 06:03:38;;;;;;;21.85;10.88;;;;;;;1.41;100.00;103714.47;6142096;23;20026;-78
2023/01/23 06:06:28;;;;;;;17.10;10.02;;;;;;;1.40;100.00;103714.78;6188141;23;20121;-78
2023/01/23 06:08:58;;;;;;;16.90;10.63;;;;;;;1.40;100.00;103720.03;6187237;23;20017;-78
2023/01/23 06:11:24;;;;;;;18.27;10.10;;;;;;;1.40;100.00;103720.81;6188032;23;20417;-79
2023/01/23 06:13:51;;;;;;;16.90;10.27;;;;;;;1.41;100.00;103719.72;6190459;23;20024;-79
2023/01/23 06:16:17;;;;;;;20.35;10.27;;;;;;;1.41;100.00;103719.72;6189114;23;20025;-79
2023/01/23 06:18:44;;;;;;;18.50;10.23;;;;;;;1.41;100.00;103708.44;6188787;23;20022;-79
2023/01/23 06:21:14;;;;;;;14.35;9.25;;;;;;;1.40;100.00;103714.78;6188389;23;20020;-79
2023/01/23 06:23:40;;;;;;;13.75;9.90;;;;;;;1.40;100.00;103715.56;6188318;23;20032;-80
2023/01/23 06:26:08;;;;;;;21.15;10.73;;;;;;;1.41;100.00;103722.34;6190453;23;20018;-79
2023/01/23 06:28:35;;;;;;;17.65;10.20;;;;;;;1.40;100.00;103731.31;6189215;23;20025;-79
2023/01/23 06:31:03;;;;;;;17.65;10.18;;;;;;;1.41;100.00;103737.31;6188137;23;20028;-80
2023/01/23 06:33:41;;;;;;;19.45;10.73;;;;;;;1.41;100.00;103740.72;6189079;23;20432;-78
2023/01/23 06:36:10;;;;;;;17.88;10.02;;;;;;;1.43;100.00;103743.06;6188391;23;20518;-78
2023/01/23 06:38:37;;;;;;;15.45;10.18;;;;;;;1.44;100.00;103750.63;6188081;23;20052;-79
2023/01/23 06:41:08;;;;;;;18.98;9.70;;;;;;;1.45;100.00;103752.19;6188137;23;20024;-79
2023/01/23 06:43:37;;;;;;;17.25;9.30;;;;;;;1.45;100.00;103751.41;6189212;23;20415;-79
2023/01/23 06:46:11;;;;;;;16.73;9.70;;;;;;;1.44;100.00;103761.13;6188738;23;20017;-79
2023/01/23 06:48:38;;;;;;;16.25;9.98;;;;;;;1.45;100.00;103761.91;6188242;23;20411;-79
2023/01/23 06:51:05;;;;;;;19.48;9.65;;;;;;;1.45;100.00;103769.78;6188168;23;20056;-79
2023/01/23 06:53:32;;;;;;;18.55;10.48;;;;;;;1.45;100.00;103778.44;6188251;23;20026;-79
2023/01/23 06:56:05;;;;;;;16.90;10.20;;;;;;;1.45;100.00;103769.78;6188220;23;20064;-80
2023/01/23 06:58:34;;;;;;;16.85;10.50;;;;;;;1.47;100.00;103757.13;6188699;23;20498;-78
2023/01/23 07:01:09;;;;;;;20.27;10.05;;;;;;;1.45;100.00;103760.03;6188286;23;20056;-78
2023/01/23 07:03:55;;;;;;;18.55;10.60;;;;;;;1.45;100.00;103762.69;6188919;23;20085;-79
2023/01/23 07:06:21;;;;;;;21.02;10.90;;;;;;;1.43;100.00;103756.94;6188058;23;20017;-79
2023/01/23 07:08:48;;;;;;;21.38;11.35;;;;;;;1.44;100.00;103752.47;6190332;23;20020;-80
2023/01/23 07:11:15;;;;;;;18.48;10.63;;;;;;;1.43;100.00;103753.56;6188962;23;20092;-79
2023/01/23 07:13:42;;;;;;;23.88;11.10;;;;;;;1.42;100.00;103752.78;6188835;23;20371;-80
2023/01/23 07:16:11;;;;;;;19.73;10.43;;;;;;;1.42;100.00;103749.38;6188382;23;20440;-80
2023/01/23 07:18:38;;;;;;;17.00;10.77;;;;;;;1.41;100.00;103756.47;6188856;23;20017;-78
2023/01/23 07:21:08;;;;;;;17.35;11.23;;;;;;;1.43;100.00;103756.19;6187703;23;20017;-78
2023/01/23 07:23:34;;;;;;;19.10;11.45;;;;;;;1.42;100.00;103754.63;6193387;23;20538;-78
2023/01/23 07:26:08;;;;;;;19.10;11.93;;;;;;;1.42;100.00;103752.00;6190860;23;20021;-82
2023/01/23 07:28:36;;;;;;;17.70;11.02;;;;;;;1.43;100.00;103748.31;6191690;23;20013;-79
2023/01/23 07:31:03;;;;;;;18.73;11.57;;;;;;;1.43;100.00;103759.56;6190030;23;20028;-80
2023/01/23 07:33:30;;;;;;;21.30;10.95;;;;;;;1.44;100.00;103763.75;6190428;23;20057;-81
2023/01/23 07:35:57;;;;;;;21.52;11.57;;;;;;;1.44;100.00;103763.75;6189475;23;20080;-79
2023/01/23 07:38:24;;;;;;;18.75;10.75;;;;;;;1.45;100.00;103764.53;6190308;23;20018;-78
2023/01/23 07:40:51;;;;;;;17.25;11.30;;;;;;;1.45;100.00;103760.03;6189685;23;20025;-79
2023/01/23 07:43:18;;;;;;;23.70;11.18;;;;;;;1.46;100.00;103758.19;6190409;23;20056;-79
2023/01/23 07:45:45;;;;;;;19.70;10.75;;;;;;;1.45;100.00;103759.28;6188389;23;20018;-79
2023/01/23 07:48:11;;;;;;;20.35;11.85;;;;;;;1.44;100.00;103760.34;6190703;23;20076;-81
2023/01/23 07:50:38;;;;;;;19.77;11.40;;;;;;;1.45;100.00;103770.56;6189455;23;20018;-82
2023/01/23 07:53:05;;;;;;;15.07;10.75;;;;;;;1.45;100.00;103781.06;6189211;23;20025;-81
2023/01/23 07:55:32;;;;;;;18.27;11.63;;;;;;;1.46;100.00;103798.34;6164008;23;20009;-80
2023/01/23 07:57:58;;;;;;;20.92;11.68;;;;;;;1.46;100.00;103814.09;6190074;23;20048;-80
2023/01/23 08:00:25;;;;;;;21.60;11.70;;;;;;;1.45;100.00;103811.78;6190206;23;20205;-80
2023/01/23 08:02:55;;;;;;;20.23;12.25;;;;;;;1.47;100.00;103813.03;6164263;23;20017;-82
2023/01/23 08:05:28;;;;;;;16.90;11.95;;;;;;;1.52;100.00;103822.63;6189773;23;20478;-80
2023/01/23 08:07:54;;;;;;;21.98;11.38;;;;;;;1.53;100.00;103822.31;6189952;23;20045;-81
2023/01/23 08:10:38;;;;;;;23.92;11.85;;;;;;;1.57;100.00;103814.63;6190298;23;20052;-81
2023/01/23 08:13:05;;;;;;;18.85;11.13;;;;;;;1.60;100.00;103808.78;6163011;23;20421;-78
2023/01/23 08:15:32;;;;;;;23.00;12.45;;;;;;;1.64;100.00;103822.81;6190444;23;20018;-80
2023/01/23 08:17:58;;;;;;;17.60;11.65;;;;;;;1.67;100.00;103815.09;6188451;23;20026;-80
2023/01/23 08:20:25;;;;;;;18.08;11.85;;;;;;;1.70;100.00;103813.72;6189463;23;20017;-86
2023/01/23 08:22:51;;;;;;;21.38;12.07;;;;;;;1.72;100.00;103821.31;6189466;23;20055;-82
2023/01/23 08:25:18;;;;;;;24.13;12.05;;;;;;;1.74;100.00;103819.16;6163674;23;20025;-84
2023/01/23 08:27:44;;;;;;;18.85;11.80;;;;;;;1.76;100.00;103820.41;6190610;23;20017;-81
2023/01/23 08:30:11;;;;;;;19.33;12.38;;;;;;;1.80;100.00;103831.06;6162765;23;20025;-80
2023/01/23 08:32:38;;;;;;;19.73;12.05;;;;;;;1.81;100.00;103833.41;6189875;23;20025;-80
2023/01/23 08:35:05;;;;;;;22.15;11.95;;;;;;;1.84;100.00;103835.44;6188928;23;20084;-80
2023/01/23 08:37:33;;;;;;;22.10;12.15;;;;;;;1.86;100.00;103828.00;6163765;23;20009;-80
2023/01/23 08:39:59;;;;;;;19.25;10.88;;;;;;;1.90;100.00;103825.56;6162778;23;20014;-79
2023/01/23 08:42:26;;;;;;;22.00;12.63;;;;;;;1.91;100.00;103827.09;6190033;23;20025;-79
2023/01/23 08:44:52;;;;;;;17.33;12.48;;;;;;;1.94;100.00;103819.38;6189698;23;20021;-81
2023/01/23 08:47:19;;;;;;;17.27;12.05;;;;;;;1.97;100.00;103826.66;6191870;23;20010;-79
2023/01/23 08:49:45;;;;;;;22.58;12.68;;;;;;;1.99;100.00;103826.34;6189464;23;20014;-78
2023/01/23 08:52:12;;;;;;;20.08;12.90;;;;;;;1.98;100.00;103824.81;6162672;23;20087;-80
2023/01/23 08:54:38;;;;;;;18.77;12.75;;;;;;;2.02;100.00;103828.34;6189717;23;20013;-80
2023/01/23 08:57:05;;;;;;;20.80;12.13;;;;;;;2.04;100.00;103835.94;6189630;23;20014;-79
2023/01/23 08:59:31;;;;;;;19.05;12.13;;;;;;;2.08;100.00;103836.88;6189795;23;20467;-79
2023/01/23 09:01:58;;;;;;;19.75;12.70;;;;;;;2.11;100.00;103844.91;6162311;23;20088;-79
2023/01/23 09:04:24;;;;;;;21.10;12.48;;;;;;;2.13;100.00;103852.50;6162862;23;20120;-80
2023/01/23 09:06:51;;;;;;;19.35;12.60;;;;;;;2.18;100.00;103855.00;6189104;23;20018;-80
2023/01/23 09:09:17;;;;;;;21.25;12.70;;;;;;;2.19;100.00;103851.28;6189632;23;20021;-80
2023/01/23 09:11:45;;;;;;;22.33;12.77;;;;;;;2.23;100.00;103857.47;6189664;23;20026;-79
2023/01/23 09:14:12;;;;;;;22.48;12.25;;;;;;;2.30;100.00;103855.19;6189691;23;20021;-80
2023/01/23 09:16:39;;;;;;;19.50;12.77;;;;;;;2.33;100.00;103850.09;6189129;23;20013;-80
2023/01/23 09:19:07;;;;;;;19.08;12.23;;;;;;;2.35;100.00;103855.03;6189010;23;20018;-80
2023/01/23 09:21:33;;;;;;;23.05;13.15;;;;;;;2.40;100.00;103859.38;6189635;23;20352;-80
2023/01/23 09:24:00;;;;;;;22.50;12.68;;;;;;;2.42;100.00;103857.19;6189210;23;20018;-80
2023/01/23 09:26:26;;;;;;;20.95;13.18;;;;;;;2.44;100.00;103860.28;6189643;23;20025;-80
2023/01/23 09:28:53;;;;;;;23.73;12.85;;;;;;;2.48;100.00;103853.34;6162473;23;20484;-80
2023/01/23 09:31:20;;;;;;;22.40;13.30;;;;;;;2.52;100.00;103849.00;6189000;23;20017;-81
2023/01/23 09:33:48;;;;;;;20.05;12.18;;;;;;;2.56;100.00;103855.97;6189820;23;20448;-80
2023/01/23 09:36:14;;;;;;;21.23;13.52;;;;;;;2.59;100.00;103858.00;6189845;23;20017;-81
2023/01/23 09:38:41;;;;;;;20.60;13.95;;;;;;;2.60;100.00;103862.19;6189386;23;20022;-81
2023/01/23 09:41:15;;;;;;;18.30;12.82;;;;;;;2.62;100.00;103864.50;6189018;23;20053;-80
2023/01/23 09:43:57;;;;;;;20.17;12.95;;;;;;;2.67;100.00;103867.75;6189547;23;20010;-81
2023/01/23 09:46:45;;;;;;;22.58;13.02;;;;;;;2.73;100.00;103864.97;6189048;23;20121;-81
2023/01/23 09:49:42;;;;;;;22.42;12.48;;;;;;;2.77;100.00;103869.31;6189197;23;20017;-81
2023/01/23 09:52:18;;;;;;;22.73;13.02;;;;;;;2.81;100.00;103875.47;6189148;23;20026;-80
2023/01/23 09:54:52;;;;;;;19.48;12.80;;;;;;;2.82;99.89;103863.09;6189512;23;20089;-81
2023/01/23 09:57:25;;;;;;;20.80;13.35;;;;;;;2.87;99.67;103878.72;6189715;23;20018;-81
2023/01/23 09:59:58;;;;;;;20.05;13.80;;;;;;;2.90;99.42;103871.00;6188435;23;20018;-80
2023/01/23 10:02:26;;;;;;;18.67;12.85;;;;;;;2.95;99.19;103875.31;6187699;23;20022;-81
2023/01/23 10:04:55;;;;;;;17.13;12.25;;;;;;;2.93;98.47;103880.13;6188740;23;20464;-80
2023/01/23 10:07:42;;;;;;;19.40;12.20;;;;;;;2.95;98.53;103885.84;6189328;23;20052;-81
2023/01/23 10:10:15;;;;;;;19.13;12.73;;;;;;;3.01;98.44;103880.13;6188871;23;20017;-81
2023/01/23 10:12:57;;;;;;;16.13;12.48;;;;;;;3.10;98.16;103882.00;6189412;23;20025;-80
2023/01/23 10:15:34;;;;;;;17.30;12.38;;;;;;;3.10;98.03;103882.00;6189401;23;20018;-80
2023/01/23 10:18:14;;;;;;;19.25;12.30;;;;;;;3.14;97.58;103878.41;6190338;23;20325;-80
2023/01/23 10:20:47;;;;;;;19.85;12.70;;;;;;;3.16;97.42;103870.22;6190639;23;20013;-80
2023/01/23 10:23:31;;;;;;;19.38;11.70;;;;;;;3.19;97.42;103864.31;6190236;23;20029;-79
2023/01/23 10:26:01;;;;;;;17.55;12.32;;;;;;;3.24;96.71;103870.19;6190389;23;20096;-81
2023/01/23 10:28:37;;;;;;;16.55;12.02;;;;;;;3.29;96.50;103872.66;6189277;23;20017;-84
2023/01/23 10:31:15;;;;;;;20.17;11.43;;;;;;;3.28;95.64;103863.19;6189562;23;20014;-76
2023/01/23 10:33:53;;;;;;;16.65;11.82;;;;;;;3.30;95.89;103858.41;6190456;23;20030;-76
2023/01/23 10:36:33;;;;;;;17.58;11.70;;;;;;;3.39;95.77;103860.25;6190157;23;20024;-77
2023/01/23 10:39:17;;;;;;;18.40;11.70;;;;;;;3.49;95.82;103852.00;6190413;23;20017;-81
2023/01/23 10:41:45;;;;;;;18.77;12.07;;;;;;;3.51;95.59;103850.59;6190475;23;20515;-83
2023/01/23 10:44:17;;;;;;;17.15;11.35;;;;;;;3.52;95.23;103857.41;6189799;23;20026;-85
2023/01/23 10:46:49;;;;;;;14.32;10.85;;;;;;;3.47;94.57;103862.09;6190385;23;20017;-80
2023/01/23 10:49:28;;;;;;;15.95;10.85;;;;;;;3.50;94.68;103856.97;6189754;23;20422;-81
2023/01/23 10:51:55;;;;;;;19.08;11.73;;;;;;;3.49;94.37;103855.41;6190007;23;20486;-82
2023/01/23 10:54:26;;;;;;;16.35;11.15;;;;;;;3.59;94.49;103864.84;6190109;23;20018;-81
2023/01/23 10:57:17;;;;;;;14.95;10.57;;;;;;;3.56;94.38;103863.63;6189923;23;20021;-81
2023/01/23 11:00:03;;;;;;;16.02;10.70;;;;;;;3.54;93.99;103872.91;6189662;23;20422;-82
2023/01/23 11:02:32;;;;;;;14.90;10.25;;;;;;;3.58;93.81;103865.94;6163972;23;20462;-82
2023/01/23 11:04:59;;;;;;;18.63;11.15;;;;;;;3.67;93.48;103861.38;6190139;23;20470;-80
2023/01/23 11:07:29;;;;;;;16.08;10.73;;;;;;;3.73;93.47;103864.63;6190613;23;20462;-82
2023/01/23 11:09:58;;;;;;;16.15;11.75;;;;;;;3.69;93.25;103859.97;6190606;23;20024;-83
2023/01/23 11:12:26;;;;;;;15.57;11.30;;;;;;;3.72;93.52;103865.72;6163177;23;20021;-83
2023/01/23 11:15:23;;;;;;;16.02;11.25;;;;;;;3.77;93.55;103868.94;6190115;23;20014;-83
2023/01/23 11:17:51;;;;;;;13.88;10.23;;;;;;;3.87;93.44;103867.81;6155483;23;20069;-81
2023/01/23 11:20:21;;;;;;;16.95;11.30;;;;;;;3.92;92.83;103870.28;6192507;23;20807;-83
2023/01/23 11:23:00;;;;;;;19.23;12.48;;;;;;;3.96;92.70;103865.94;6191518;23;20158;-87
2023/01/23 11:25:51;;;;;;;16.15;10.93;;;;;;;3.86;92.24;103867.06;6166697;23;20022;-88
2023/01/23 11:28:29;;;;;;;15.30;10.30;;;;;;;3.79;91.94;103858.88;6177871;23;20014;-83
2023/01/23 11:31:10;;;;;;;14.23;10.77;;;;;;;3.84;91.74;103865.81;6195045;23;20888;-82
2023/01/23 11:33:55;;;;;;;15.40;10.98;;;;;;;3.89;92.09;103865.66;6195163;23;20077;-83